sensor_id;sensor_type;location;lat;lon;timestamp;pressure;altitude;pressure_sealevel;temperature;humidity
55490;BME280;44029;52.956;4.772;2023-05-29T00:01:16;102736.00;;;13.65;100.00
55490;BME280;44029;52.956;4.772;2023-05-29T00:03:46;102720.78;;;13.62;100.00
55490;BME280;44029;52.956;4.772;2023-05-29T00:06:12;102723.59;;;13.81;100.00
55490;BME280;44029;52.956;4.772;2023-05-29T00:08:38;102722.59;;;13.43;100.00
55490;BME280;44029;52.956;4.772;2023-05-29T00:11:04;102720.13;;;13.28;100.00
55490;BME280;44029;52.956;4.772;2023-05-29T00:13:29;102723.00;;;13.47;100.00
55490;BME280;44029;52.956;4.772;2023-05-29T00:15:55;102730.44;;;13.46;100.00
55490;BME280;44029;52.956;4.772;2023-05-29T00:18:21;102735.19;;;13.26;100.00
55490;BME280;44029;52.956;4.772;2023-05-29T00:20:47;102751.94;;;13.31;100.00
55490;BME280;44029;52.956;4.772;2023-05-29T00:23:12;102732.38;;;13.39;100.00
55490;BME280;44029;52.956;4.772;2023-05-29T00:25:37;102720.06;;;13.42;100.00
55490;BME280;44029;52.956;4.772;2023-05-29T00:28:05;102734.28;;;13.39;100.00
55490;BME280;44029;52.956;4.772;2023-05-29T00:30:31;102735.78;;;13.66;100.00
55490;BME280;44029;52.956;4.772;2023-05-29T00:32:57;102736.97;;;13.45;100.00
55490;BME280;44029;52.956;4.772;2023-05-29T00:35:22;102743.03;;;13.61;100.00
55490;BME280;44029;52.956;4.772;2023-05-29T00:37:47;102738.56;;;13.34;100.00
55490;BME280;44029;52.956;4.772;2023-05-29T00:40:12;102733.63;;;13.43;100.00
55490;BME280;44029;52.956;4.772;2023-05-29T00:42:38;102720.97;;;13.36;100.00
55490;BME280;44029;52.956;4.772;2023-05-29T00:45:04;102723.28;;;13.39;100.00
55490;BME280;44029;52.956;4.772;2023-05-29T00:47:30;102750.00;;;13.31;100.00
55490;BME280;44029;52.956;4.772;2023-05-29T00:49:56;102744.69;;;13.62;100.00
55490;BME280;44029;52.956;4.772;2023-05-29T00:52:22;102746.84;;;13.60;100.00
55490;BME280;44029;52.956;4.772;2023-05-29T00:54:48;102751.25;;;13.36;100.00
55490;BME280;44029;52.956;4.772;2023-05-29T00:57:14;102751.59;;;13.14;100.00
55490;BME280;44029;52.956;4.772;2023-05-29T00:59:42;102747.47;;;13.23;100.00
55490;BME280;44029;52.956;4.772;2023-05-29T01:02:07;102741.94;;;13.37;100.00
55490;BME280;44029;52.956;4.772;2023-05-29T01:04:34;102756.97;;;13.34;100.00
55490;BME280;44029;52.956;4.772;2023-05-29T01:07:00;102761.50;;;13.15;100.00
55490;BME280;44029;52.956;4.772;2023-05-29T01:09:29;102761.69;;;13.20;100.00
55490;BME280;44029;52.956;4.772;2023-05-29T01:20:01;102749.19;;;13.31;100.00
55490;BME280;44029;52.956;4.772;2023-05-29T01:25:24;102769.91;;;13.27;100.00
55490;BME280;44029;52.956;4.772;2023-05-29T01:27:55;102767.28;;;13.07;100.00
55490;BME280;44029;52.956;4.772;2023-05-29T01:30:21;102765.22;;;13.34;100.00
55490;BME280;44029;52.956;4.772;2023-05-29T01:32:50;102751.28;;;13.29;100.00
55490;BME280;44029;52.956;4.772;2023-05-29T01:35:15;102756.78;;;13.29;100.00
55490;BME280;44029;52.956;4.772;2023-05-29T01:37:40;102757.09;;;13.14;100.00
55490;BME280;44029;52.956;4.772;2023-05-29T01:40:06;102761.94;;;13.12;100.00
55490;BME280;44029;52.956;4.772;2023-05-29T01:42:32;102752.22;;;13.09;100.00
55490;BME280;44029;52.956;4.772;2023-05-29T01:44:58;102741.31;;;13.34;100.00
55490;BME280;44029;52.956;4.772;2023-05-29T01:47:23;102749.78;;;13.33;100.00
55490;BME280;44029;52.956;4.772;2023-05-29T01:49:51;102745.84;;;13.15;100.00
55490;BME280;44029;52.956;4.772;2023-05-29T01:52:17;102751.59;;;13.14;100.00
55490;BME280;44029;52.956;4.772;2023-05-29T01:54:43;102762.06;;;13.30;100.00
55490;BME280;44029;52.956;4.772;2023-05-29T01:57:08;102763.63;;;13.13;100.00
55490;BME280;44029;52.956;4.772;2023-05-29T01:59:34;102757.19;;;13.32;100.00
55490;BME280;44029;52.956;4.772;2023-05-29T02:02:10;102764.44;;;13.59;100.00
55490;BME280;44029;52.956;4.772;2023-05-29T02:04:36;102767.63;;;13.17;100.00
55490;BME280;44029;52.956;4.772;2023-05-29T02:07:03;102763.97;;;13.30;100.00
55490;BME280;44029;52.956;4.772;2023-05-29T02:09:29;102760.75;;;13.40;100.00
55490;BME280;44029;52.956;4.772;2023-05-29T02:11:54;102756.13;;;13.27;100.00
55490;BME280;44029;52.956;4.772;2023-05-29T02:14:20;102760.19;;;13.24;100.00
55490;BME280;44029;52.956;4.772;2023-05-29T02:16:45;102768.44;;;13.24;100.00
55490;BME280;44029;52.956;4.772;2023-05-29T02:19:10;102782.00;;;13.26;100.00
55490;BME280;44029;52.956;4.772;2023-05-29T02:21:39;102777.94;;;13.28;100.00
55490;BME280;44029;52.956;4.772;2023-05-29T02:24:06;102767.00;;;13.15;100.00
55490;BME280;44029;52.956;4.772;2023-05-29T02:26:32;102773.88;;;13.38;100.00
55490;BME280;44029;52.956;4.772;2023-05-29T02:28:57;102777.31;;;13.26;100.00
55490;BME280;44029;52.956;4.772;2023-05-29T02:31:22;102768.63;;;13.29;100.00
55490;BME280;44029;52.956;4.772;2023-05-29T02:33:48;102769.63;;;13.42;100.00
55490;BME280;44029;52.956;4.772;2023-05-29T02:36:13;102755.50;;;13.38;100.00
55490;BME280;44029;52.956;4.772;2023-05-29T02:38:39;102766.53;;;13.31;100.00
55490;BME280;44029;52.956;4.772;2023-05-29T02:41:05;102762.88;;;13.38;100.00
55490;BME280;44029;52.956;4.772;2023-05-29T02:43:31;102753.09;;;13.42;100.00
55490;BME280;44029;52.956;4.772;2023-05-29T02:45:56;102759.38;;;13.56;100.00
55490;BME280;44029;52.956;4.772;2023-05-29T02:48:21;102771.50;;;13.48;100.00
55490;BME280;44029;52.956;4.772;2023-05-29T02:50:47;102750.81;;;13.39;100.00
55490;BME280;44029;52.956;4.772;2023-05-29T02:53:12;102746.75;;;13.41;100.00
55490;BME280;44029;52.956;4.772;2023-05-29T02:55:38;102746.31;;;13.44;100.00
55490;BME280;44029;52.956;4.772;2023-05-29T02:58:03;102760.03;;;13.51;100.00
55490;BME280;44029;52.956;4.772;2023-05-29T03:00:29;102759.88;;;13.46;100.00
55490;BME280;44029;52.956;4.772;2023-05-29T03:02:54;102748.41;;;13.49;100.00
55490;BME280;44029;52.956;4.772;2023-05-29T03:05:20;102754.19;;;13.41;100.00
55490;BME280;44029;52.956;4.772;2023-05-29T03:07:45;102760.34;;;13.68;100.00
55490;BME280;44029;52.956;4.772;2023-05-29T03:10:11;102753.03;;;13.55;100.00
55490;BME280;44029;52.956;4.772;2023-05-29T03:12:37;102766.50;;;13.38;100.00
55490;BME280;44029;52.956;4.772;2023-05-29T03:15:02;102750.50;;;13.53;100.00
55490;BME280;44029;52.956;4.772;2023-05-29T03:17:28;102767.84;;;13.54;100.00
55490;BME280;44029;52.956;4.772;2023-05-29T03:19:53;102762.63;;;13.46;100.00
55490;BME280;44029;52.956;4.772;2023-05-29T03:22:18;102759.81;;;13.52;100.00
55490;BME280;44029;52.956;4.772;2023-05-29T03:24:44;102754.47;;;13.58;100.00
55490;BME280;44029;52.956;4.772;2023-05-29T03:27:09;102750.19;;;13.37;100.00
55490;BME280;44029;52.956;4.772;2023-05-29T03:29:35;102751.16;;;13.49;100.00
55490;BME280;44029;52.956;4.772;2023-05-29T03:32:00;102762.19;;;13.74;100.00
55490;BME280;44029;52.956;4.772;2023-05-29T03:34:26;102770.41;;;13.81;100.00
55490;BME280;44029;52.956;4.772;2023-05-29T03:36:51;102760.09;;;13.69;100.00
55490;BME280;44029;52.956;4.772;2023-05-29T03:39:17;102762.72;;;13.64;100.00
55490;BME280;44029;52.956;4.772;2023-05-29T03:41:43;102753.09;;;13.42;100.00
55490;BME280;44029;52.956;4.772;2023-05-29T03:44:08;102761.22;;;13.37;100.00
55490;BME280;44029;52.956;4.772;2023-05-29T03:46:35;102756.56;;;13.30;100.00
55490;BME280;44029;52.956;4.772;2023-05-29T03:49:00;102758.88;;;13.27;100.00
55490;BME280;44029;52.956;4.772;2023-05-29T03:51:25;102772.38;;;13.42;100.00
55490;BME280;44029;52.956;4.772;2023-05-29T03:53:51;102758.53;;;13.55;100.00
55490;BME280;44029;52.956;4.772;2023-05-29T03:56:16;102754.25;;;13.27;100.00
55490;BME280;44029;52.956;4.772;2023-05-29T03:58:41;102763.31;;;13.66;100.00
55490;BME280;44029;52.956;4.772;2023-05-29T04:01:06;102756.03;;;13.47;100.00
55490;BME280;44029;52.956;4.772;2023-05-29T04:03:33;102768.19;;;13.32;100.00
55490;BME280;44029;52.956;4.772;2023-05-29T04:05:58;102753.09;;;13.42;100.00
55490;BME280;44029;52.956;4.772;2023-05-29T04:08:24;102773.19;;;13.49;100.00
55490;BME280;44029;52.956;4.772;2023-05-29T04:10:49;102768.28;;;13.51;100.00
55490;BME280;44029;52.956;4.772;2023-05-29T04:13:18;102773.63;;;13.46;100.00
55490;BME280;44029;52.956;4.772;2023-05-29T04:15:44;102776.28;;;13.59;100.00
55490;BME280;44029;52.956;4.772;2023-05-29T04:18:09;102775.69;;;13.57;100.00
55490;BME280;44029;52.956;4.772;2023-05-29T04:20:34;102785.00;;;13.56;100.00
55490;BME280;44029;52.956;4.772;2023-05-29T04:23:00;102784.13;;;13.62;100.00
55490;BME280;44029;52.956;4.772;2023-05-29T04:25:25;102782.81;;;13.65;100.00
55490;BME280;44029;52.956;4.772;2023-05-29T04:27:50;102796.31;;;13.73;100.00
55490;BME280;44029;52.956;4.772;2023-05-29T04:30:16;102794.03;;;13.70;100.00
55490;BME280;44029;52.956;4.772;2023-05-29T04:32:42;102790.50;;;13.56;100.00
55490;BME280;44029;52.956;4.772;2023-05-29T04:35:08;102795.53;;;13.66;100.00
55490;BME280;44029;52.956;4.772;2023-05-29T04:37:34;102806.94;;;13.69;100.00
55490;BME280;44029;52.956;4.772;2023-05-29T04:40:07;102797.22;;;13.67;100.00
55490;BME280;44029;52.956;4.772;2023-05-29T04:42:35;102802.22;;;13.77;100.00
55490;BME280;44029;52.956;4.772;2023-05-29T04:45:01;102801.28;;;13.58;100.00
55490;BME280;44029;52.956;4.772;2023-05-29T04:47:26;102807.09;;;13.75;100.00
55490;BME280;44029;52.956;4.772;2023-05-29T04:49:53;102809.56;;;13.58;100.00
55490;BME280;44029;52.956;4.772;2023-05-29T04:52:19;102804.41;;;13.68;100.00
55490;BME280;44029;52.956;4.772;2023-05-29T04:54:46;102798.84;;;13.75;100.00
55490;BME280;44029;52.956;4.772;2023-05-29T04:57:11;102809.44;;;13.78;100.00
55490;BME280;44029;52.956;4.772;2023-05-29T04:59:37;102805.22;;;13.75;100.00
55490;BME280;44029;52.956;4.772;2023-05-29T05:02:02;102817.84;;;13.51;100.00
55490;BME280;44029;52.956;4.772;2023-05-29T05:04:28;102800.88;;;13.61;100.00
55490;BME280;44029;52.956;4.772;2023-05-29T05:06:53;102806.91;;;13.44;100.00
55490;BME280;44029;52.956;4.772;2023-05-29T05:09:18;102804.75;;;13.78;100.00
55490;BME280;44029;52.956;4.772;2023-05-29T05:11:44;102819.75;;;13.57;100.00
55490;BME280;44029;52.956;4.772;2023-05-29T05:14:09;102833.22;;;13.65;100.00
55490;BME280;44029;52.956;4.772;2023-05-29T05:16:34;102828.59;;;13.66;100.00
55490;BME280;44029;52.956;4.772;2023-05-29T05:19:00;102828.63;;;13.59;100.00
55490;BME280;44029;52.956;4.772;2023-05-29T05:21:25;102820.66;;;13.76;100.00
55490;BME280;44029;52.956;4.772;2023-05-29T05:23:50;102816.78;;;13.52;100.00
55490;BME280;44029;52.956;4.772;2023-05-29T05:26:16;102823.41;;;13.76;100.00
55490;BME280;44029;52.956;4.772;2023-05-29T05:28:41;102830.28;;;13.60;100.00
55490;BME280;44029;52.956;4.772;2023-05-29T05:31:07;102828.34;;;13.67;100.00
55490;BME280;44029;52.956;4.772;2023-05-29T05:33:34;102823.31;;;13.89;100.00
55490;BME280;44029;52.956;4.772;2023-05-29T05:35:59;102811.44;;;13.89;100.00
55490;BME280;44029;52.956;4.772;2023-05-29T05:38:24;102831.72;;;14.01;100.00
55490;BME280;44029;52.956;4.772;2023-05-29T05:40:50;102841.72;;;14.21;100.00
55490;BME280;44029;52.956;4.772;2023-05-29T05:43:15;102848.88;;;13.71;100.00
55490;BME280;44029;52.956;4.772;2023-05-29T05:45:40;102835.88;;;14.10;100.00
55490;BME280;44029;52.956;4.772;2023-05-29T05:48:07;102828.47;;;14.04;100.00
55490;BME280;44029;52.956;4.772;2023-05-29T05:50:33;102832.94;;;14.05;100.00
55490;BME280;44029;52.956;4.772;2023-05-29T05:52:58;102832.81;;;13.93;100.00
55490;BME280;44029;52.956;4.772;2023-05-29T05:55:24;102821.63;;;13.88;100.00
55490;BME280;44029;52.956;4.772;2023-05-29T05:57:51;102831.47;;;13.78;100.00
55490;BME280;44029;52.956;4.772;2023-05-29T06:00:17;102828.78;;;13.96;100.00
55490;BME280;44029;52.956;4.772;2023-05-29T06:02:42;102834.63;;;14.06;100.00
55490;BME280;44029;52.956;4.772;2023-05-29T06:05:10;102831.81;;;14.13;100.00
55490;BME280;44029;52.956;4.772;2023-05-29T06:07:36;102834.06;;;14.23;100.00
55490;BME280;44029;52.956;4.772;2023-05-29T06:10:02;102832.94;;;14.05;100.00
55490;BME280;44029;52.956;4.772;2023-05-29T06:12:28;102836.75;;;14.04;100.00
55490;BME280;44029;52.956;4.772;2023-05-29T06:14:54;102848.13;;;14.15;100.00
55490;BME280;44029;52.956;4.772;2023-05-29T06:17:20;102847.22;;;14.21;100.00
55490;BME280;44029;52.956;4.772;2023-05-29T06:19:46;102837.22;;;14.01;100.00
55490;BME280;44029;52.956;4.772;2023-05-29T06:22:11;102857.00;;;14.17;100.00
55490;BME280;44029;52.956;4.772;2023-05-29T06:24:37;102853.22;;;14.18;100.00
55490;BME280;44029;52.956;4.772;2023-05-29T06:27:02;102847.41;;;14.26;100.00
55490;BME280;44029;52.956;4.772;2023-05-29T06:29:28;102849.03;;;14.59;100.00
55490;BME280;44029;52.956;4.772;2023-05-29T06:31:53;102850.34;;;14.93;100.00
55490;BME280;44029;52.956;4.772;2023-05-29T06:34:18;102855.78;;;14.56;100.00
55490;BME280;44029;52.956;4.772;2023-05-29T06:36:44;102854.13;;;14.55;100.00
55490;BME280;44029;52.956;4.772;2023-05-29T06:39:09;102859.75;;;14.67;100.00
55490;BME280;44029;52.956;4.772;2023-05-29T06:41:35;102869.03;;;15.10;100.00
55490;BME280;44029;52.956;4.772;2023-05-29T06:44:01;102868.66;;;14.87;100.00
55490;BME280;44029;52.956;4.772;2023-05-29T06:46:26;102876.78;;;15.01;100.00
55490;BME280;44029;52.956;4.772;2023-05-29T06:48:51;102867.06;;;16.31;100.00
55490;BME280;44029;52.956;4.772;2023-05-29T06:51:17;102863.09;;;16.51;100.00
55490;BME280;44029;52.956;4.772;2023-05-29T06:53:43;102866.56;;;15.69;100.00
55490;BME280;44029;52.956;4.772;2023-05-29T06:56:08;102869.75;;;14.86;100.00
55490;BME280;44029;52.956;4.772;2023-05-29T06:58:34;102871.56;;;14.93;100.00
55490;BME280;44029;52.956;4.772;2023-05-29T07:00:59;102872.94;;;14.83;100.00
55490;BME280;44029;52.956;4.772;2023-05-29T07:03:26;102878.63;;;14.70;100.00
55490;BME280;44029;52.956;4.772;2023-05-29T07:05:52;102868.41;;;14.71;100.00
55490;BME280;44029;52.956;4.772;2023-05-29T07:08:17;102878.78;;;15.31;100.00
55490;BME280;44029;52.956;4.772;2023-05-29T07:10:43;102886.53;;;15.03;100.00
55490;BME280;44029;52.956;4.772;2023-05-29T07:13:08;102896.84;;;14.71;100.00
55490;BME280;44029;52.956;4.772;2023-05-29T07:15:34;102904.81;;;14.61;100.00
55490;BME280;44029;52.956;4.772;2023-05-29T07:17:59;102888.06;;;14.56;100.00
55490;BME280;44029;52.956;4.772;2023-05-29T07:20:25;102898.44;;;14.35;100.00
55490;BME280;44029;52.956;4.772;2023-05-29T07:22:50;102900.75;;;14.38;100.00
55490;BME280;44029;52.956;4.772;2023-05-29T07:25:15;102895.00;;;14.65;100.00
55490;BME280;44029;52.956;4.772;2023-05-29T07:27:41;102892.88;;;14.42;100.00
55490;BME280;44029;52.956;4.772;2023-05-29T07:30:07;102885.44;;;14.42;100.00
55490;BME280;44029;52.956;4.772;2023-05-29T07:32:32;102890.91;;;15.11;100.00
55490;BME280;44029;52.956;4.772;2023-05-29T07:34:58;102897.06;;;15.43;100.00
55490;BME280;44029;52.956;4.772;2023-05-29T07:37:23;102911.06;;;15.12;100.00
55490;BME280;44029;52.956;4.772;2023-05-29T07:39:48;102917.56;;;15.17;100.00
55490;BME280;44029;52.956;4.772;2023-05-29T07:42:14;102905.28;;;15.32;100.00
55490;BME280;44029;52.956;4.772;2023-05-29T07:44:39;102920.88;;;14.89;100.00
55490;BME280;44029;52.956;4.772;2023-05-29T07:47:08;102914.81;;;15.17;100.00
55490;BME280;44029;52.956;4.772;2023-05-29T07:49:33;102891.75;;;15.79;100.00
55490;BME280;44029;52.956;4.772;2023-05-29T07:51:58;102899.72;;;15.20;100.00
55490;BME280;44029;52.956;4.772;2023-05-29T07:54:24;102912.94;;;15.48;100.00
55490;BME280;44029;52.956;4.772;2023-05-29T07:56:49;102903.50;;;16.28;100.00
55490;BME280;44029;52.956;4.772;2023-05-29T07:59:15;102914.56;;;16.28;100.00
55490;BME280;44029;52.956;4.772;2023-05-29T08:01:40;102895.84;;;15.88;100.00
55490;BME280;44029;52.956;4.772;2023-05-29T08:04:06;102903.34;;;15.99;100.00
55490;BME280;44029;52.956;4.772;2023-05-29T08:06:31;102895.47;;;16.50;100.00
55490;BME280;44029;52.956;4.772;2023-05-29T08:08:59;102912.44;;;16.54;100.00
55490;BME280;44029;52.956;4.772;2023-05-29T08:11:24;102907.06;;;16.83;100.00
55490;BME280;44029;52.956;4.772;2023-05-29T08:13:50;102901.00;;;17.09;100.00
55490;BME280;44029;52.956;4.772;2023-05-29T08:16:15;102911.25;;;16.85;100.00
55490;BME280;44029;52.956;4.772;2023-05-29T08:18:42;102902.41;;;17.24;100.00
55490;BME280;44029;52.956;4.772;2023-05-29T08:21:08;102916.25;;;17.24;100.00
55490;BME280;44029;52.956;4.772;2023-05-29T08:23:34;102903.19;;;17.36;100.00
55490;BME280;44029;52.956;4.772;2023-05-29T08:26:00;102905.44;;;16.75;100.00
55490;BME280;44029;52.956;4.772;2023-05-29T08:28:27;102910.25;;;17.15;100.00
55490;BME280;44029;52.956;4.772;2023-05-29T08:30:53;102893.78;;;16.37;100.00
55490;BME280;44029;52.956;4.772;2023-05-29T08:33:18;102898.59;;;16.54;100.00
55490;BME280;44029;52.956;4.772;2023-05-29T08:35:43;102913.13;;;16.37;100.00
55490;BME280;44029;52.956;4.772;2023-05-29T08:38:09;102913.75;;;16.63;100.00
55490;BME280;44029;52.956;4.772;2023-05-29T08:40:35;102918.81;;;16.78;100.00
55490;BME280;44029;52.956;4.772;2023-05-29T08:43:15;102903.72;;;17.21;100.00
55490;BME280;44029;52.956;4.772;2023-05-29T08:45:44;102907.00;;;17.58;100.00
55490;BME280;44029;52.956;4.772;2023-05-29T08:48:11;102907.88;;;17.47;100.00
55490;BME280;44029;52.956;4.772;2023-05-29T08:50:43;102925.72;;;17.39;100.00
55490;BME280;44029;52.956;4.772;2023-05-29T08:53:10;102904.88;;;17.08;100.00
55490;BME280;44029;52.956;4.772;2023-05-29T08:55:36;102916.34;;;17.98;100.00
55490;BME280;44029;52.956;4.772;2023-05-29T08:58:02;102933.25;;;17.56;100.00
55490;BME280;44029;52.956;4.772;2023-05-29T09:00:27;102916.09;;;17.30;100.00
55490;BME280;44029;52.956;4.772;2023-05-29T09:02:54;102916.69;;;17.44;100.00
55490;BME280;44029;52.956;4.772;2023-05-29T09:05:21;102926.53;;;16.88;100.00
55490;BME280;44029;52.956;4.772;2023-05-29T09:07:47;102917.84;;;17.19;100.00
55490;BME280;44029;52.956;4.772;2023-05-29T09:10:15;102917.41;;;16.99;100.00
55490;BME280;44029;52.956;4.772;2023-05-29T09:12:41;102911.94;;;17.16;100.00
55490;BME280;44029;52.956;4.772;2023-05-29T09:15:27;102925.75;;;17.68;100.00
55490;BME280;44029;52.956;4.772;2023-05-29T09:17:56;102911.78;;;17.63;100.00
55490;BME280;44029;52.956;4.772;2023-05-29T09:20:23;102925.94;;;16.97;100.00
55490;BME280;44029;52.956;4.772;2023-05-29T09:23:06;102920.75;;;17.01;100.00
55490;BME280;44029;52.956;4.772;2023-05-29T09:25:33;102932.41;;;16.56;100.00
55490;BME280;44029;52.956;4.772;2023-05-29T09:28:03;102928.34;;;16.94;100.00
55490;BME280;44029;52.956;4.772;2023-05-29T09:30:31;102931.94;;;16.59;100.00
55490;BME280;44029;52.956;4.772;2023-05-29T09:32:58;102936.72;;;16.52;100.00
55490;BME280;44029;52.956;4.772;2023-05-29T09:35:25;102925.19;;;17.02;100.00
55490;BME280;44029;52.956;4.772;2023-05-29T09:37:50;102933.13;;;16.75;100.00
55490;BME280;44029;52.956;4.772;2023-05-29T09:40:16;102930.13;;;16.53;100.00
55490;BME280;44029;52.956;4.772;2023-05-29T09:42:41;102929.50;;;16.27;100.00
55490;BME280;44029;52.956;4.772;2023-05-29T09:45:07;102940.53;;;15.85;100.00
55490;BME280;44029;52.956;4.772;2023-05-29T09:47:34;102946.97;;;16.63;100.00
55490;BME280;44029;52.956;4.772;2023-05-29T09:50:00;102931.81;;;16.77;100.00
55490;BME280;44029;52.956;4.772;2023-05-29T09:52:28;102937.78;;;16.27;100.00
55490;BME280;44029;52.956;4.772;2023-05-29T09:54:55;102947.97;;;16.92;100.00
55490;BME280;44029;52.956;4.772;2023-05-29T09:57:22;102939.22;;;16.41;100.00
55490;BME280;44029;52.956;4.772;2023-05-29T09:59:49;102945.72;;;15.93;100.00
55490;BME280;44029;52.956;4.772;2023-05-29T10:02:17;102938.16;;;16.42;100.00
55490;BME280;44029;52.956;4.772;2023-05-29T10:04:42;102945.31;;;16.62;100.00
55490;BME280;44029;52.956;4.772;2023-05-29T10:07:28;102956.22;;;16.69;100.00
55490;BME280;44029;52.956;4.772;2023-05-29T10:10:02;102925.06;;;16.50;100.00
55490;BME280;44029;52.956;4.772;2023-05-29T10:12:29;102926.19;;;16.96;100.00
55490;BME280;44029;52.956;4.772;2023-05-29T10:14:57;102935.31;;;16.61;100.00
55490;BME280;44029;52.956;4.772;2023-05-29T10:17:26;102937.22;;;16.60;100.00
55490;BME280;44029;52.956;4.772;2023-05-29T10:19:54;102929.63;;;16.44;100.00
55490;BME280;44029;52.956;4.772;2023-05-29T10:22:24;102942.00;;;16.30;100.00
55490;BME280;44029;52.956;4.772;2023-05-29T10:24:51;102938.84;;;15.84;100.00
55490;BME280;44029;52.956;4.772;2023-05-29T10:27:18;102937.50;;;16.05;100.00
55490;BME280;44029;52.956;4.772;2023-05-29T10:29:50;102922.25;;;16.26;100.00
55490;BME280;44029;52.956;4.772;2023-05-29T10:32:29;102934.81;;;15.98;100.00
55490;BME280;44029;52.956;4.772;2023-05-29T10:35:08;102932.25;;;16.27;100.00
55490;BME280;44029;52.956;4.772;2023-05-29T10:37:48;102931.81;;;16.54;100.00
55490;BME280;44029;52.956;4.772;2023-05-29T10:40:15;102919.66;;;16.67;100.00
55490;BME280;44029;52.956;4.772;2023-05-29T10:42:42;102934.97;;;16.15;100.00
55490;BME280;44029;52.956;4.772;2023-05-29T10:45:09;102947.66;;;16.35;100.00
55490;BME280;44029;52.956;4.772;2023-05-29T10:47:37;102939.22;;;16.41;100.00
55490;BME280;44029;52.956;4.772;2023-05-29T10:50:02;102939.63;;;16.69;100.00
55490;BME280;44029;52.956;4.772;2023-05-29T10:52:34;102936.09;;;16.26;100.00
55490;BME280;44029;52.956;4.772;2023-05-29T10:55:01;102929.41;;;15.92;100.00
55490;BME280;44029;52.956;4.772;2023-05-29T10:57:29;102935.25;;;16.37;100.00
55490;BME280;44029;52.956;4.772;2023-05-29T11:00:05;102920.16;;;16.99;100.00
55490;BME280;44029;52.956;4.772;2023-05-29T11:02:32;102923.16;;;16.86;100.00
55490;BME280;44029;52.956;4.772;2023-05-29T11:05:05;102925.28;;;16.36;100.00
55490;BME280;44029;52.956;4.772;2023-05-29T11:07:50;102920.75;;;16.77;100.00
55490;BME280;44029;52.956;4.772;2023-05-29T11:10:17;102939.25;;;16.65;100.00
55490;BME280;44029;52.956;4.772;2023-05-29T11:13:03;102938.72;;;16.87;100.00
55490;BME280;44029;52.956;4.772;2023-05-29T11:15:29;102945.78;;;17.06;100.00
55490;BME280;44029;52.956;4.772;2023-05-29T11:18:05;102931.81;;;16.54;100.00
55490;BME280;44029;52.956;4.772;2023-05-29T11:20:43;102944.69;;;16.72;100.00
55490;BME280;44029;52.956;4.772;2023-05-29T11:23:16;102937.41;;;16.23;100.00
55490;BME280;44029;52.956;4.772;2023-05-29T11:25:44;102944.81;;;16.65;100.00
55490;BME280;44029;52.956;4.772;2023-05-29T11:28:10;102955.22;;;16.39;100.00
55490;BME280;44029;52.956;4.772;2023-05-29T11:30:42;102944.91;;;16.82;100.00
55490;BME280;44029;52.956;4.772;2023-05-29T11:33:09;102941.03;;;16.24;100.00
55490;BME280;44029;52.956;4.772;2023-05-29T11:35:41;102940.84;;;16.07;100.00
55490;BME280;44029;52.956;4.772;2023-05-29T11:38:07;102953.22;;;16.04;100.00
55490;BME280;44029;52.956;4.772;2023-05-29T11:40:36;102949.66;;;16.16;100.00
55490;BME280;44029;52.956;4.772;2023-05-29T11:43:02;102946.75;;;16.11;100.00
55490;BME280;44029;52.956;4.772;2023-05-29T11:45:32;102944.25;;;16.21;100.00
55490;BME280;44029;52.956;4.772;2023-05-29T11:48:01;102946.91;;;15.85;100.00
55490;BME280;44029;52.956;4.772;2023-05-29T11:50:27;102942.41;;;16.03;100.00
55490;BME280;44029;52.956;4.772;2023-05-29T11:52:53;102944.94;;;15.74;100.00
55490;BME280;44029;52.956;4.772;2023-05-29T11:55:19;102950.84;;;15.78;100.00
55490;BME280;44029;52.956;4.772;2023-05-29T11:57:55;102955.31;;;15.79;100.00
55490;BME280;44029;52.956;4.772;2023-05-29T12:00:21;102946.63;;;16.06;100.00
55490;BME280;44029;52.956;4.772;2023-05-29T12:02:47;102949.00;;;16.02;100.00
55490;BME280;44029;52.956;4.772;2023-05-29T12:05:15;102956.13;;;16.10;100.00
55490;BME280;44029;52.956;4.772;2023-05-29T12:07:54;102971.81;;;16.28;100.00
55490;BME280;44029;52.956;4.772;2023-05-29T12:10:23;102947.13;;;16.14;100.00
55490;BME280;44029;52.956;4.772;2023-05-29T12:12:51;102958.13;;;16.33;100.00
55490;BME280;44029;52.956;4.772;2023-05-29T12:15:17;102954.97;;;15.87;100.00
55490;BME280;44029;52.956;4.772;2023-05-29T12:17:44;102941.91;;;16.06;100.00
55490;BME280;44029;52.956;4.772;2023-05-29T12:20:10;102950.38;;;15.81;100.00
55490;BME280;44029;52.956;4.772;2023-05-29T12:22:37;102961.78;;;16.15;100.00
55490;BME280;44029;52.956;4.772;2023-05-29T12:25:07;102950.44;;;16.04;100.00
55490;BME280;44029;52.956;4.772;2023-05-29T12:27:34;102930.06;;;15.75;100.00
55490;BME280;44029;52.956;4.772;2023-05-29T12:30:08;102935.91;;;15.97;100.00
55490;BME280;44029;52.956;4.772;2023-05-29T12:32:43;102941.28;;;15.92;100.00
55490;BME280;44029;52.956;4.772;2023-05-29T12:35:23;102932.84;;;16.29;100.00
55490;BME280;44029;52.956;4.772;2023-05-29T12:37:58;102934.19;;;16.50;100.00
55490;BME280;44029;52.956;4.772;2023-05-29T12:40:33;102941.56;;;16.02;100.00
55490;BME280;44029;52.956;4.772;2023-05-29T12:43:07;102943.88;;;16.17;100.00
55490;BME280;44029;52.956;4.772;2023-05-29T12:45:34;102942.56;;;15.41;100.00
55490;BME280;44029;52.956;4.772;2023-05-29T12:48:01;102929.34;;;15.80;100.00
55490;BME280;44029;52.956;4.772;2023-05-29T12:50:48;102941.38;;;15.85;100.00